Terminal Aerodrome Forecast
Issued by NWS

Current Version | Previous Version | Text Only | Print | Product List | Glossary Off
Versions: 1 2 3 4 5 6 7 8 9 10 11 12 13 14 15 16 17 18 19 20 21

762
FTUS41 KPBZ 010939 AAA
TAFHLG
TAF AMD
KHLG 010939Z 0110/0206 21008KT P6SM -SHRA OVC012
     FM011400 21007KT P6SM VCSH BKN025
     FM011700 21006KT P6SM VCTS BKN035CB
     FM020000 VRB03KT P6SM VCSH BKN025=

USA.gov is the U.S. government's official web portal to all federal, state and local government web resources and services.